sensor_id;sensor_type;location;lat;lon;timestamp;pressure;altitude;pressure_sealevel;temperature;humidity
40075;BME280;26529;51.530;11.754;2022-11-20T00:01:18;99743.75;;;17.31;47.18
40075;BME280;26529;51.530;11.754;2022-11-20T00:03:44;99730.50;;;17.31;47.32
40075;BME280;26529;51.530;11.754;2022-11-20T00:06:13;99743.66;;;17.33;47.24
40075;BME280;26529;51.530;11.754;2022-11-20T00:08:39;99733.91;;;17.33;47.40
40075;BME280;26529;51.530;11.754;2022-11-20T00:11:16;99732.19;;;17.32;47.38
40075;BME280;26529;51.530;11.754;2022-11-20T00:13:44;99734.09;;;17.30;47.50
40075;BME280;26529;51.530;11.754;2022-11-20T00:16:11;99732.41;;;17.29;47.45
40075;BME280;26529;51.530;11.754;2022-11-20T00:18:37;99727.97;;;17.30;47.69
40075;BME280;26529;51.530;11.754;2022-11-20T00:21:04;99722.66;;;17.30;47.36
40075;BME280;26529;51.530;11.754;2022-11-20T00:23:30;99714.91;;;17.27;47.35
40075;BME280;26529;51.530;11.754;2022-11-20T00:26:00;99725.09;;;17.33;47.34
40075;BME280;26529;51.530;11.754;2022-11-20T00:28:26;99713.75;;;17.31;47.32
40075;BME280;26529;51.530;11.754;2022-11-20T00:30:51;99724.44;;;17.29;47.37
40075;BME280;26529;51.530;11.754;2022-11-20T00:33:16;99715.56;;;17.30;47.42
40075;BME280;26529;51.530;11.754;2022-11-20T00:35:42;99711.19;;;17.29;47.49
40075;BME280;26529;51.530;11.754;2022-11-20T00:38:07;99705.91;;;17.29;47.36
40075;BME280;26529;51.530;11.754;2022-11-20T00:40:33;99718.28;;;17.29;47.43
40075;BME280;26529;51.530;11.754;2022-11-20T00:42:58;99721.91;;;17.28;47.51
40075;BME280;26529;51.530;11.754;2022-11-20T00:45:24;99713.75;;;17.31;47.35
40075;BME280;26529;51.530;11.754;2022-11-20T00:47:49;99713.75;;;17.31;47.24
40075;BME280;26529;51.530;11.754;2022-11-20T00:50:15;99725.19;;;17.31;47.42
40075;BME280;26529;51.530;11.754;2022-11-20T00:52:40;99728.78;;;17.30;47.52
40075;BME280;26529;51.530;11.754;2022-11-20T00:55:06;99723.50;;;17.30;47.45
40075;BME280;26529;51.530;11.754;2022-11-20T00:57:32;99720.09;;;17.28;47.45
40075;BME280;26529;51.530;11.754;2022-11-20T00:59:57;99720.09;;;17.28;47.64
40075;BME280;26529;51.530;11.754;2022-11-20T01:02:23;99720.09;;;17.28;47.49
40075;BME280;26529;51.530;11.754;2022-11-20T01:04:48;99707.81;;;17.27;47.64
40075;BME280;26529;51.530;11.754;2022-11-20T01:07:14;99709.50;;;17.28;47.43
40075;BME280;26529;51.530;11.754;2022-11-20T01:09:39;99706.84;;;17.28;47.64
40075;BME280;26529;51.530;11.754;2022-11-20T01:12:05;99713.13;;;17.27;47.31
40075;BME280;26529;51.530;11.754;2022-11-20T01:14:30;99702.50;;;17.27;47.45
40075;BME280;26529;51.530;11.754;2022-11-20T01:16:56;99705.91;;;17.29;47.32
40075;BME280;26529;51.530;11.754;2022-11-20T01:19:22;99699.75;;;17.29;47.44
40075;BME280;26529;51.530;11.754;2022-11-20T01:21:51;99698.91;;;17.28;47.43
40075;BME280;26529;51.530;11.754;2022-11-20T01:24:18;99710.34;;;17.29;47.49
40075;BME280;26529;51.530;11.754;2022-11-20T01:26:46;99703.91;;;17.33;47.29
40075;BME280;26529;51.530;11.754;2022-11-20T01:29:23;99703.34;;;17.28;47.20
40075;BME280;26529;51.530;11.754;2022-11-20T01:31:49;99705.16;;;17.27;47.39
40075;BME280;26529;51.530;11.754;2022-11-20T01:34:17;99705.16;;;17.27;47.61
40075;BME280;26529;51.530;11.754;2022-11-20T01:36:44;99705.25;;;17.26;47.55
40075;BME280;26529;51.530;11.754;2022-11-20T01:39:21;99699.09;;;17.25;47.55
40075;BME280;26529;51.530;11.754;2022-11-20T01:41:48;99704.38;;;17.25;47.49
40075;BME280;26529;51.530;11.754;2022-11-20T01:47:08;99704.94;;;17.30;47.62
40075;BME280;26529;51.530;11.754;2022-11-20T01:49:39;99702.31;;;17.30;47.22
40075;BME280;26529;51.530;11.754;2022-11-20T01:52:31;99703.25;;;17.29;47.63
40075;BME280;26529;51.530;11.754;2022-11-20T01:55:05;99700.59;;;17.29;47.57
40075;BME280;26529;51.530;11.754;2022-11-20T01:57:34;99711.94;;;17.31;47.37
40075;BME280;26529;51.530;11.754;2022-11-20T02:00:08;99708.47;;;17.31;47.29
40075;BME280;26529;51.530;11.754;2022-11-20T02:02:45;99709.50;;;17.28;47.25
40075;BME280;26529;51.530;11.754;2022-11-20T02:05:19;99719.16;;;17.29;47.32
40075;BME280;26529;51.530;11.754;2022-11-20T02:07:48;99713.13;;;17.27;47.57
40075;BME280;26529;51.530;11.754;2022-11-20T02:10:14;99705.16;;;17.27;47.40
40075;BME280;26529;51.530;11.754;2022-11-20T02:12:40;99708.56;;;17.29;47.40
40075;BME280;26529;51.530;11.754;2022-11-20T02:15:25;99696.34;;;17.27;47.58
40075;BME280;26529;51.530;11.754;2022-11-20T02:17:50;99706.13;;;17.26;47.60
40075;BME280;26529;51.530;11.754;2022-11-20T02:20:16;99704.22;;;17.28;47.52
40075;BME280;26529;51.530;11.754;2022-11-20T02:22:50;99697.22;;;17.27;47.23
40075;BME280;26529;51.530;11.754;2022-11-20T02:25:19;99692.75;;;17.28;47.55
40075;BME280;26529;51.530;11.754;2022-11-20T02:27:45;99694.66;;;17.26;47.73
40075;BME280;26529;51.530;11.754;2022-11-20T02:30:11;99692.09;;;17.24;47.72
40075;BME280;26529;51.530;11.754;2022-11-20T02:32:37;99691.91;;;17.27;47.37
40075;BME280;26529;51.530;11.754;2022-11-20T02:35:08;99692.97;;;17.25;47.47
40075;BME280;26529;51.530;11.754;2022-11-20T02:37:37;99687.66;;;17.25;47.63
40075;BME280;26529;51.530;11.754;2022-11-20T02:40:04;99686.81;;;17.24;47.40
40075;BME280;26529;51.530;11.754;2022-11-20T02:42:30;99683.19;;;17.25;47.56
40075;BME280;26529;51.530;11.754;2022-11-20T02:44:55;99686.63;;;17.27;47.48
40075;BME280;26529;51.530;11.754;2022-11-20T02:47:21;99684.78;;;17.28;47.43
40075;BME280;26529;51.530;11.754;2022-11-20T02:49:46;99690.22;;;17.26;47.61
40075;BME280;26529;51.530;11.754;2022-11-20T02:52:11;99693.59;;;17.28;47.47
40075;BME280;26529;51.530;11.754;2022-11-20T02:54:37;99676.09;;;17.26;47.55
40075;BME280;26529;51.530;11.754;2022-11-20T02:57:03;99676.09;;;17.26;47.74
40075;BME280;26529;51.530;11.754;2022-11-20T02:59:28;99674.31;;;17.26;47.35
40075;BME280;26529;51.530;11.754;2022-11-20T03:01:53;99665.28;;;17.29;47.29
40075;BME280;26529;51.530;11.754;2022-11-20T03:04:19;99671.66;;;17.26;47.64
40075;BME280;26529;51.530;11.754;2022-11-20T03:06:45;99667.28;;;17.25;47.62
40075;BME280;26529;51.530;11.754;2022-11-20T03:09:11;99670.91;;;17.24;47.61
40075;BME280;26529;51.530;11.754;2022-11-20T03:11:36;99666.38;;;17.26;47.48
40075;BME280;26529;51.530;11.754;2022-11-20T03:14:03;99654.81;;;17.27;47.55
40075;BME280;26529;51.530;11.754;2022-11-20T03:16:30;99652.91;;;17.29;47.57
40075;BME280;26529;51.530;11.754;2022-11-20T03:18:56;99655.78;;;17.26;47.44
40075;BME280;26529;51.530;11.754;2022-11-20T03:21:22;99649.72;;;17.24;47.54
40075;BME280;26529;51.530;11.754;2022-11-20T03:23:47;99647.06;;;17.24;47.63
40075;BME280;26529;51.530;11.754;2022-11-20T03:26:16;99657.75;;;17.22;47.70
40075;BME280;26529;51.530;11.754;2022-11-20T03:28:46;99656.91;;;17.22;47.57
40075;BME280;26529;51.530;11.754;2022-11-20T03:31:14;99660.31;;;17.24;47.62
40075;BME280;26529;51.530;11.754;2022-11-20T03:33:41;99644.41;;;17.24;47.34
40075;BME280;26529;51.530;11.754;2022-11-20T03:36:10;99649.72;;;17.24;47.60
40075;BME280;26529;51.530;11.754;2022-11-20T03:38:36;99655.88;;;17.25;47.83
40075;BME280;26529;51.530;11.754;2022-11-20T03:41:07;99653.13;;;17.26;47.60
40075;BME280;26529;51.530;11.754;2022-11-20T03:43:33;99641.84;;;17.22;47.75
40075;BME280;26529;51.530;11.754;2022-11-20T03:45:59;99644.63;;;17.21;47.78
40075;BME280;26529;51.530;11.754;2022-11-20T03:48:25;99648.00;;;17.23;47.87
40075;BME280;26529;51.530;11.754;2022-11-20T03:50:52;99657.56;;;17.26;47.67
40075;BME280;26529;51.530;11.754;2022-11-20T03:53:17;99665.41;;;17.27;47.50
40075;BME280;26529;51.530;11.754;2022-11-20T03:55:43;99665.69;;;17.22;47.83
40075;BME280;26529;51.530;11.754;2022-11-20T03:58:09;99653.31;;;17.23;47.58
40075;BME280;26529;51.530;11.754;2022-11-20T04:00:35;99653.31;;;17.23;47.62
40075;BME280;26529;51.530;11.754;2022-11-20T04:03:02;99655.97;;;17.23;47.66
40075;BME280;26529;51.530;11.754;2022-11-20T04:05:28;99656.91;;;17.22;47.67
40075;BME280;26529;51.530;11.754;2022-11-20T04:07:53;99655.97;;;17.23;47.67
40075;BME280;26529;51.530;11.754;2022-11-20T04:10:19;99652.34;;;17.24;47.74
40075;BME280;26529;51.530;11.754;2022-11-20T04:12:44;99653.13;;;17.26;47.53
40075;BME280;26529;51.530;11.754;2022-11-20T04:15:10;99653.31;;;17.23;47.77
40075;BME280;26529;51.530;11.754;2022-11-20T04:17:35;99651.53;;;17.24;47.66
40075;BME280;26529;51.530;11.754;2022-11-20T04:20:01;99646.75;;;17.29;47.40
40075;BME280;26529;51.530;11.754;2022-11-20T04:22:27;99645.81;;;17.30;47.60
40075;BME280;26529;51.530;11.754;2022-11-20T04:24:53;99644.22;;;17.27;47.53
40075;BME280;26529;51.530;11.754;2022-11-20T04:27:18;99643.34;;;17.27;47.41
40075;BME280;26529;51.530;11.754;2022-11-20T04:29:44;99636.47;;;17.24;47.48
40075;BME280;26529;51.530;11.754;2022-11-20T04:32:09;99638.16;;;17.25;47.42
40075;BME280;26529;51.530;11.754;2022-11-20T04:34:35;99639.09;;;17.24;47.49
40075;BME280;26529;51.530;11.754;2022-11-20T04:37:01;99633.06;;;17.22;47.68
40075;BME280;26529;51.530;11.754;2022-11-20T04:39:26;99636.28;;;17.27;47.21
40075;BME280;26529;51.530;11.754;2022-11-20T04:41:52;99635.50;;;17.25;47.53
40075;BME280;26529;51.530;11.754;2022-11-20T04:44:37;99630.19;;;17.25;47.48
40075;BME280;26529;51.530;11.754;2022-11-20T04:47:03;99635.50;;;17.25;47.67
40075;BME280;26529;51.530;11.754;2022-11-20T04:49:28;99627.78;;;17.22;47.58
40075;BME280;26529;51.530;11.754;2022-11-20T04:51:54;99622.47;;;17.22;47.70
40075;BME280;26529;51.530;11.754;2022-11-20T04:54:19;99622.56;;;17.20;47.59
40075;BME280;26529;51.530;11.754;2022-11-20T04:56:49;99626.06;;;17.21;47.34
40075;BME280;26529;51.530;11.754;2022-11-20T04:59:14;99623.44;;;17.21;47.76
40075;BME280;26529;51.530;11.754;2022-11-20T05:01:40;99621.72;;;17.20;47.57
40075;BME280;26529;51.530;11.754;2022-11-20T05:04:05;99628.72;;;17.21;47.71
40075;BME280;26529;51.530;11.754;2022-11-20T05:06:31;99618.31;;;17.18;47.87
40075;BME280;26529;51.530;11.754;2022-11-20T05:08:58;99615.56;;;17.19;47.60
40075;BME280;26529;51.530;11.754;2022-11-20T05:11:23;99611.13;;;17.20;47.73
40075;BME280;26529;51.530;11.754;2022-11-20T05:13:50;99610.38;;;17.18;47.65
40075;BME280;26529;51.530;11.754;2022-11-20T05:16:18;99607.53;;;17.21;47.43
40075;BME280;26529;51.530;11.754;2022-11-20T05:18:44;99611.88;;;17.22;47.62
40075;BME280;26529;51.530;11.754;2022-11-20T05:21:11;99622.47;;;17.22;47.58
40075;BME280;26529;51.530;11.754;2022-11-20T05:23:37;99627.97;;;17.19;47.56
40075;BME280;26529;51.530;11.754;2022-11-20T05:26:03;99628.81;;;17.19;47.70
40075;BME280;26529;51.530;11.754;2022-11-20T05:28:30;99622.88;;;17.16;47.77
40075;BME280;26529;51.530;11.754;2022-11-20T05:30:56;99612.38;;;17.14;47.61
40075;BME280;26529;51.530;11.754;2022-11-20T05:33:28;99607.72;;;17.18;47.47
40075;BME280;26529;51.530;11.754;2022-11-20T05:35:58;99605.84;;;17.20;47.56
40075;BME280;26529;51.530;11.754;2022-11-20T05:38:23;99609.63;;;17.16;47.60
40075;BME280;26529;51.530;11.754;2022-11-20T05:40:49;99614.72;;;17.19;47.52
40075;BME280;26529;51.530;11.754;2022-11-20T05:43:14;99614.72;;;17.19;47.71
40075;BME280;26529;51.530;11.754;2022-11-20T05:45:40;99608.56;;;17.18;47.45
40075;BME280;26529;51.530;11.754;2022-11-20T05:48:05;99607.72;;;17.18;47.53
40075;BME280;26529;51.530;11.754;2022-11-20T05:50:31;99603.94;;;17.22;47.44
40075;BME280;26529;51.530;11.754;2022-11-20T05:53:00;99600.53;;;17.20;47.71
40075;BME280;26529;51.530;11.754;2022-11-20T05:55:27;99597.59;;;17.25;47.42
40075;BME280;26529;51.530;11.754;2022-11-20T05:57:54;99592.69;;;17.18;47.53
40075;BME280;26529;51.530;11.754;2022-11-20T06:00:20;99592.78;;;17.17;47.48
40075;BME280;26529;51.530;11.754;2022-11-20T06:02:46;99586.66;;;17.16;47.71
40075;BME280;26529;51.530;11.754;2022-11-20T06:05:11;99582.72;;;17.22;47.42
40075;BME280;26529;51.530;11.754;2022-11-20T06:07:37;99585.56;;;17.19;47.46
40075;BME280;26529;51.530;11.754;2022-11-20T06:10:02;99591.09;;;17.16;47.84
40075;BME280;26529;51.530;11.754;2022-11-20T06:12:28;99588.44;;;17.16;47.68
40075;BME280;26529;51.530;11.754;2022-11-20T06:14:53;99589.38;;;17.15;47.88
40075;BME280;26529;51.530;11.754;2022-11-20T06:17:19;99592.03;;;17.15;47.75
40075;BME280;26529;51.530;11.754;2022-11-20T06:19:45;99597.34;;;17.15;47.68
40075;BME280;26529;51.530;11.754;2022-11-20T06:22:10;99608.88;;;17.14;47.76
40075;BME280;26529;51.530;11.754;2022-11-20T06:24:36;99613.41;;;17.12;47.81
40075;BME280;26529;51.530;11.754;2022-11-20T06:27:02;99611.53;;;17.14;47.68
40075;BME280;26529;51.530;11.754;2022-11-20T06:29:27;99611.63;;;17.12;47.95
40075;BME280;26529;51.530;11.754;2022-11-20T06:31:54;99618.44;;;17.16;47.95
40075;BME280;26529;51.530;11.754;2022-11-20T06:34:19;99623.63;;;17.18;47.77
40075;BME280;26529;51.530;11.754;2022-11-20T06:36:45;99629.56;;;17.21;47.70
40075;BME280;26529;51.530;11.754;2022-11-20T06:39:10;99627.22;;;17.17;47.65
40075;BME280;26529;51.530;11.754;2022-11-20T06:41:36;99627.22;;;17.17;47.57
40075;BME280;26529;51.530;11.754;2022-11-20T06:44:04;99621.91;;;17.17;47.84
40075;BME280;26529;51.530;11.754;2022-11-20T06:46:29;99620.00;;;17.19;47.66
40075;BME280;26529;51.530;11.754;2022-11-20T06:48:55;99621.91;;;17.17;47.72
40075;BME280;26529;51.530;11.754;2022-11-20T06:51:20;99613.22;;;17.15;47.68
40075;BME280;26529;51.530;11.754;2022-11-20T06:53:46;99613.13;;;17.16;47.72
40075;BME280;26529;51.530;11.754;2022-11-20T06:56:12;99607.53;;;17.21;47.64
40075;BME280;26529;51.530;11.754;2022-11-20T06:58:38;99612.94;;;17.19;47.44
40075;BME280;26529;51.530;11.754;2022-11-20T07:01:09;99612.06;;;17.19;47.58
40075;BME280;26529;51.530;11.754;2022-11-20T07:03:36;99614.72;;;17.19;47.59
40075;BME280;26529;51.530;11.754;2022-11-20T07:06:02;99602.41;;;17.18;47.64
40075;BME280;26529;51.530;11.754;2022-11-20T07:08:28;99608.66;;;17.17;47.59
40075;BME280;26529;51.530;11.754;2022-11-20T07:11:02;99600.63;;;17.18;47.65
40075;BME280;26529;51.530;11.754;2022-11-20T07:13:28;99600.31;;;17.23;47.56
40075;BME280;26529;51.530;11.754;2022-11-20T07:15:55;99602.88;;;17.25;46.98
40075;BME280;26529;51.530;11.754;2022-11-20T07:18:24;99606.47;;;17.24;47.62
40075;BME280;26529;51.530;11.754;2022-11-20T07:20:49;99606.06;;;17.30;47.73
40075;BME280;26529;51.530;11.754;2022-11-20T07:23:15;99603.31;;;17.31;47.77
40075;BME280;26529;51.530;11.754;2022-11-20T07:25:40;99600.25;;;17.38;48.26
40075;BME280;26529;51.530;11.754;2022-11-20T07:28:06;99601.63;;;17.30;48.29
40075;BME280;26529;51.530;11.754;2022-11-20T07:30:31;99594.94;;;17.38;48.18
40075;BME280;26529;51.530;11.754;2022-11-20T07:32:57;99594.00;;;17.39;48.66
40075;BME280;26529;51.530;11.754;2022-11-20T07:35:23;99596.03;;;17.48;48.74
40075;BME280;26529;51.530;11.754;2022-11-20T07:37:49;99584.47;;;17.49;48.25
40075;BME280;26529;51.530;11.754;2022-11-20T07:40:18;99582.59;;;17.64;47.74
40075;BME280;26529;51.530;11.754;2022-11-20T07:42:54;99583.34;;;17.53;47.99
40075;BME280;26529;51.530;11.754;2022-11-20T07:45:21;99584.06;;;17.55;48.04
40075;BME280;26529;51.530;11.754;2022-11-20T07:47:47;99583.13;;;17.69;48.09
40075;BME280;26529;51.530;11.754;2022-11-20T07:50:13;99585.75;;;17.56;48.16
40075;BME280;26529;51.530;11.754;2022-11-20T07:52:39;99584.66;;;17.46;48.02
40075;BME280;26529;51.530;11.754;2022-11-20T07:55:06;99588.28;;;17.45;48.16
40075;BME280;26529;51.530;11.754;2022-11-20T07:57:32;99593.81;;;17.42;48.08
40075;BME280;26529;51.530;11.754;2022-11-20T07:59:58;99589.66;;;17.38;47.86
40075;BME280;26529;51.530;11.754;2022-11-20T08:02:24;99591.47;;;17.37;48.02
40075;BME280;26529;51.530;11.754;2022-11-20T08:04:49;99588.69;;;17.39;48.13
40075;BME280;26529;51.530;11.754;2022-11-20T08:07:15;99589.56;;;17.39;47.84
40075;BME280;26529;51.530;11.754;2022-11-20T08:09:40;99583.38;;;17.39;47.72
40075;BME280;26529;51.530;11.754;2022-11-20T08:12:06;99579.81;;;17.40;47.47
40075;BME280;26529;51.530;11.754;2022-11-20T08:14:50;99574.50;;;17.40;47.60
40075;BME280;26529;51.530;11.754;2022-11-20T08:17:15;99571.75;;;17.41;47.39
40075;BME280;26529;51.530;11.754;2022-11-20T08:19:41;99576.94;;;17.43;47.71
40075;BME280;26529;51.530;11.754;2022-11-20T08:22:06;99577.16;;;17.40;47.63
40075;BME280;26529;51.530;11.754;2022-11-20T08:24:32;99573.84;;;17.36;47.55
40075;BME280;26529;51.530;11.754;2022-11-20T08:26:58;99568.03;;;17.31;47.88
40075;BME280;26529;51.530;11.754;2022-11-20T08:29:25;99568.34;;;17.39;47.51
40075;BME280;26529;51.530;11.754;2022-11-20T08:31:51;99575.34;;;17.40;47.50
40075;BME280;26529;51.530;11.754;2022-11-20T08:34:16;99563.06;;;17.39;47.86
40075;BME280;26529;51.530;11.754;2022-11-20T08:36:42;99576.41;;;17.38;48.11
40075;BME280;26529;51.530;11.754;2022-11-20T08:39:07;99570.56;;;17.32;47.98
40075;BME280;26529;51.530;11.754;2022-11-20T08:41:36;99562.50;;;17.34;48.11
40075;BME280;26529;51.530;11.754;2022-11-20T08:44:04;99573.66;;;17.39;48.29
40075;BME280;26529;51.530;11.754;2022-11-20T08:46:38;99569.22;;;17.40;48.17
40075;BME280;26529;51.530;11.754;2022-11-20T08:49:05;99574.72;;;17.36;48.40
40075;BME280;26529;51.530;11.754;2022-11-20T08:51:32;99567.72;;;17.35;48.09
40075;BME280;26529;51.530;11.754;2022-11-20T08:53:57;99574.50;;;17.40;48.01
40075;BME280;26529;51.530;11.754;2022-11-20T08:56:23;99574.28;;;17.43;47.95
40075;BME280;26529;51.530;11.754;2022-11-20T08:58:50;99579.19;;;17.49;48.06
40075;BME280;26529;51.530;11.754;2022-11-20T09:01:16;99580.88;;;17.50;48.41
40075;BME280;26529;51.530;11.754;2022-11-20T09:03:42;99577.25;;;17.51;48.34
40075;BME280;26529;51.530;11.754;2022-11-20T09:06:07;99577.25;;;17.51;48.37
40075;BME280;26529;51.530;11.754;2022-11-20T09:08:33;99577.50;;;17.48;48.42
40075;BME280;26529;51.530;11.754;2022-11-20T09:10:59;99576.44;;;17.51;48.31
40075;BME280;26529;51.530;11.754;2022-11-20T09:13:26;99575.16;;;17.56;48.27
40075;BME280;26529;51.530;11.754;2022-11-20T09:15:56;99577.72;;;17.58;48.21
40075;BME280;26529;51.530;11.754;2022-11-20T09:18:23;99573.06;;;17.61;48.03
40075;BME280;26529;51.530;11.754;2022-11-20T09:20:49;99574.00;;;17.60;48.07
40075;BME280;26529;51.530;11.754;2022-11-20T09:23:15;99565.84;;;17.63;47.77
40075;BME280;26529;51.530;11.754;2022-11-20T09:25:41;99575.69;;;17.61;47.96
40075;BME280;26529;51.530;11.754;2022-11-20T09:28:06;99578.53;;;17.58;47.91
40075;BME280;26529;51.530;11.754;2022-11-20T09:30:32;99573.38;;;17.57;48.29
40075;BME280;26529;51.530;11.754;2022-11-20T09:32:57;99566.06;;;17.60;48.03
40075;BME280;26529;51.530;11.754;2022-11-20T09:35:23;99566.06;;;17.60;47.90
40075;BME280;26529;51.530;11.754;2022-11-20T09:37:49;99570.59;;;17.58;48.28
40075;BME280;26529;51.530;11.754;2022-11-20T09:40:26;99577.91;;;17.55;48.34
40075;BME280;26529;51.530;11.754;2022-11-20T09:45:42;99563.91;;;17.53;48.20
40075;BME280;26529;51.530;11.754;2022-11-20T09:48:32;99571.56;;;17.57;48.33
40075;BME280;26529;51.530;11.754;2022-11-20T09:51:06;99572.19;;;17.61;48.39
40075;BME280;26529;51.530;11.754;2022-11-20T09:53:56;99564.69;;;17.68;48.34
40075;BME280;26529;51.530;11.754;2022-11-20T09:56:23;99552.38;;;17.67;48.33
40075;BME280;26529;51.530;11.754;2022-11-20T09:58:52;99548.97;;;17.65;48.43
40075;BME280;26529;51.530;11.754;2022-11-20T10:01:21;99550.78;;;17.64;48.35
40075;BME280;26529;51.530;11.754;2022-11-20T10:03:57;99544.53;;;17.65;48.26
40075;BME280;26529;51.530;11.754;2022-11-20T10:06:33;99547.50;;;17.60;48.67
40075;BME280;26529;51.530;11.754;2022-11-20T10:09:03;99548.34;;;17.61;48.60
40075;BME280;26529;51.530;11.754;2022-11-20T10:14:45;99550.16;;;17.60;48.34
40075;BME280;26529;51.530;11.754;2022-11-20T10:25:24;99546.53;;;17.61;48.14
40075;BME280;26529;51.530;11.754;2022-11-20T10:30:22;99539.56;;;17.60;47.97
40075;BME280;26529;51.530;11.754;2022-11-20T10:33:17;99539.56;;;17.60;48.27
40075;BME280;26529;51.530;11.754;2022-11-20T10:38:53;99518.41;;;17.46;47.92
40075;BME280;26529;51.530;11.754;2022-11-20T10:41:27;99521.69;;;17.49;47.77
40075;BME280;26529;51.530;11.754;2022-11-20T10:44:11;99520.66;;;17.52;47.95
40075;BME280;26529;51.530;11.754;2022-11-20T10:46:43;99515.34;;;17.52;48.17
40075;BME280;26529;51.530;11.754;2022-11-20T10:49:14;99510.50;;;17.59;47.81
40075;BME280;26529;51.530;11.754;2022-11-20T10:52:03;99512.81;;;17.63;48.23
40075;BME280;26529;51.530;11.754;2022-11-20T11:00:07;99493.41;;;17.63;48.53
40075;BME280;26529;51.530;11.754;2022-11-20T11:02:52;99491.59;;;17.63;48.58
40075;BME280;26529;51.530;11.754;2022-11-20T11:07:58;99475.94;;;17.60;48.72
40075;BME280;26529;51.530;11.754;2022-11-20T11:10:46;99480.56;;;17.70;48.41
40075;BME280;26529;51.530;11.754;2022-11-20T11:13:25;99484.91;;;17.71;48.99
40075;BME280;26529;51.530;11.754;2022-11-20T11:15:52;99486.59;;;17.72;50.51
40075;BME280;26529;51.530;11.754;2022-11-20T11:18:29;99483.00;;;17.73;50.28
40075;BME280;26529;51.530;11.754;2022-11-20T11:20:56;99480.56;;;17.70;50.51
40075;BME280;26529;51.530;11.754;2022-11-20T11:23:34;99481.44;;;17.70;50.06
40075;BME280;26529;51.530;11.754;2022-11-20T11:26:02;99479.94;;;17.66;50.46
40075;BME280;26529;51.530;11.754;2022-11-20T11:28:28;99485.25;;;17.66;49.88
40075;BME280;26529;51.530;11.754;2022-11-20T11:30:55;99481.94;;;17.75;49.85
40075;BME280;26529;51.530;11.754;2022-11-20T11:33:26;99478.44;;;17.75;50.13
40075;BME280;26529;51.530;11.754;2022-11-20T11:35:54;99473.69;;;17.80;50.85
40075;BME280;26529;51.530;11.754;2022-11-20T11:38:39;99482.13;;;17.85;50.86
40075;BME280;26529;51.530;11.754;2022-11-20T11:41:07;99472.72;;;17.81;51.10
40075;BME280;26529;51.530;11.754;2022-11-20T11:43:36;99477.16;;;17.81;50.63
40075;BME280;26529;51.530;11.754;2022-11-20T11:49:09;99475.03;;;17.73;50.50
40075;BME280;26529;51.530;11.754;2022-11-20T11:54:24;99478.66;;;17.72;50.03
40075;BME280;26529;51.530;11.754;2022-11-20T11:56:51;99473.34;;;17.72;50.28
40075;BME280;26529;51.530;11.754;2022-11-20T11:59:26;99468.28;;;17.69;50.29
40075;BME280;26529;51.530;11.754;2022-11-20T12:01:56;99474.13;;;17.74;50.17
40075;BME280;26529;51.530;11.754;2022-11-20T12:04:44;99469.09;;;17.69;50.28
40075;BME280;26529;51.530;11.754;2022-11-20T12:07:51;99462.88;;;17.70;50.02
40075;BME280;26529;51.530;11.754;2022-11-20T12:10:23;99464.91;;;17.67;50.14
40075;BME280;26529;51.530;11.754;2022-11-20T12:13:00;99453.44;;;17.66;50.26
40075;BME280;26529;51.530;11.754;2022-11-20T12:15:32;99451.84;;;17.63;50.00
40075;BME280;26529;51.530;11.754;2022-11-20T12:17:58;99461.09;;;17.58;50.29
40075;BME280;26529;51.530;11.754;2022-11-20T12:20:29;99460.84;;;17.61;49.96
40075;BME280;26529;51.530;11.754;2022-11-20T12:25:35;99448.22;;;17.65;50.28
40075;BME280;26529;51.530;11.754;2022-11-20T12:34:52;99455.03;;;17.69;50.58
40075;BME280;26529;51.530;11.754;2022-11-20T12:43:22;99441.53;;;17.72;50.60
40075;BME280;26529;51.530;11.754;2022-11-20T12:46:20;99450.88;;;17.65;50.26
40075;BME280;26529;51.530;11.754;2022-11-20T12:49:02;99451.09;;;17.61;50.39
40075;BME280;26529;51.530;11.754;2022-11-20T12:51:49;99445.19;;;17.58;50.23
40075;BME280;26529;51.530;11.754;2022-11-20T13:00:00;99443.69;;;17.54;50.18
40075;BME280;26529;51.530;11.754;2022-11-20T13:05:21;99450.03;;;17.51;50.05
40075;BME280;26529;51.530;11.754;2022-11-20T13:07:51;99444.66;;;17.53;49.89
40075;BME280;26529;51.530;11.754;2022-11-20T13:13:01;99439.44;;;17.51;50.02
40075;BME280;26529;51.530;11.754;2022-11-20T13:15:42;99426.41;;;17.48;49.90
40075;BME280;26529;51.530;11.754;2022-11-20T13:18:11;99423.78;;;17.48;50.05
40075;BME280;26529;51.530;11.754;2022-11-20T13:20:45;99428.09;;;17.49;49.97
40075;BME280;26529;51.530;11.754;2022-11-20T13:23:11;99429.91;;;17.48;49.87
40075;BME280;26529;51.530;11.754;2022-11-20T13:25:39;99433.50;;;17.47;50.03
40075;BME280;26529;51.530;11.754;2022-11-20T13:30:47;99431.81;;;17.46;49.88
40075;BME280;26529;51.530;11.754;2022-11-20T13:33:33;99439.03;;;17.44;50.07
40075;BME280;26529;51.530;11.754;2022-11-20T13:36:20;99436.50;;;17.43;49.87
40075;BME280;26529;51.530;11.754;2022-11-20T13:38:47;99428.63;;;17.41;49.95
40075;BME280;26529;51.530;11.754;2022-11-20T13:41:30;99419.94;;;17.39;49.80
40075;BME280;26529;51.530;11.754;2022-11-20T13:44:05;99433.09;;;17.41;49.81
40075;BME280;26529;51.530;11.754;2022-11-20T13:46:41;99427.81;;;17.41;49.74
40075;BME280;26529;51.530;11.754;2022-11-20T13:49:14;99433.84;;;17.43;49.74
40075;BME280;26529;51.530;11.754;2022-11-20T13:51:50;99433.09;;;17.41;49.86
40075;BME280;26529;51.530;11.754;2022-11-20T13:54:44;99431.41;;;17.40;49.76
40075;BME280;26529;51.530;11.754;2022-11-20T14:00:18;99419.09;;;17.39;49.61
40075;BME280;26529;51.530;11.754;2022-11-20T14:05:35;99419.09;;;17.39;49.55
40075;BME280;26529;51.530;11.754;2022-11-20T14:08:03;99425.25;;;17.39;49.46
40075;BME280;26529;51.530;11.754;2022-11-20T14:10:31;99427.03;;;17.39;49.54